createdAt,value
2018-03-26T00:00:31.653Z,39.70
2018-03-26T00:03:04.213Z,37.20
2018-03-26T00:05:37.814Z,37.93
2018-03-26T00:08:10.485Z,37.10
2018-03-26T00:10:43.154Z,38.87
2018-03-26T00:13:15.728Z,41.47
2018-03-26T00:15:48.245Z,46.13
2018-03-26T00:18:20.824Z,45.23
2018-03-26T00:20:53.450Z,44.83
2018-03-26T00:23:26.719Z,44.40
2018-03-26T00:25:59.378Z,41.90
2018-03-26T00:28:32.316Z,41.83
2018-03-26T00:31:04.950Z,41.50
2018-03-26T00:33:37.780Z,43.97
2018-03-26T00:36:10.865Z,38.93
2018-03-26T00:38:43.397Z,40.60
2018-03-26T00:41:16.052Z,38.33
2018-03-26T00:43:49.828Z,38.70
2018-03-26T00:46:22.358Z,36.03
2018-03-26T00:48:55.186Z,34.17
2018-03-26T00:51:28.382Z,41.60
2018-03-26T00:54:01.305Z,42.30
2018-03-26T00:56:33.880Z,34.97
2018-03-26T00:59:07.177Z,37.13
2018-03-26T01:01:40.472Z,41.87
2018-03-26T01:04:13.002Z,38.57
2018-03-26T01:06:45.827Z,45.07
2018-03-26T01:09:18.787Z,42.10
2018-03-26T01:11:51.488Z,33.23
2018-03-26T01:14:24.232Z,35.77
2018-03-26T01:16:57.015Z,37.70
2018-03-26T01:19:30.203Z,35.93
2018-03-26T01:22:03.223Z,41.30
2018-03-26T01:24:35.873Z,39.07
2018-03-26T01:27:08.408Z,45.43
2018-03-26T01:29:41.334Z,40.40
2018-03-26T01:32:14.639Z,39.67
2018-03-26T01:34:48.173Z,36.03
2018-03-26T01:37:20.912Z,41.37
2018-03-26T01:39:53.494Z,49.03
2018-03-26T01:42:25.988Z,41.43
2018-03-26T01:44:59.355Z,38.93
2018-03-26T01:47:32.163Z,38.57
2018-03-26T01:50:04.818Z,34.83
2018-03-26T01:52:37.410Z,46.83
2018-03-26T01:55:10.077Z,40.47
2018-03-26T01:57:42.782Z,39.07
2018-03-26T02:00:15.417Z,40.77
2018-03-26T02:02:48.224Z,44.83
2018-03-26T02:05:21.260Z,39.23
2018-03-26T02:07:54.048Z,41.30
2018-03-26T02:10:26.593Z,44.60
2018-03-26T02:12:59.399Z,39.63
2018-03-26T02:15:32.328Z,44.57
2018-03-26T02:18:05.654Z,44.73
2018-03-26T02:20:38.550Z,44.20
2018-03-26T02:23:11.213Z,46.93
2018-03-26T02:25:43.955Z,42.10
2018-03-26T02:28:16.545Z,39.43
2018-03-26T02:30:49.344Z,45.77
2018-03-26T02:33:21.779Z,36.73
2018-03-26T02:35:54.483Z,48.37
2018-03-26T02:38:27.160Z,45.73
2018-03-26T02:41:00.044Z,48.17
2018-03-26T02:43:33.260Z,37.97
2018-03-26T02:46:06.426Z,40.03
2018-03-26T02:48:39.171Z,38.03
2018-03-26T02:51:12.136Z,38.00
2018-03-26T02:53:46.199Z,39.90
2018-03-26T02:56:19.092Z,40.70
2018-03-26T02:58:52.795Z,44.87
2018-03-26T03:01:26.126Z,45.37
2018-03-26T03:03:58.870Z,48.80
2018-03-26T03:06:32.576Z,38.83
2018-03-26T03:09:05.933Z,39.53
2018-03-26T03:11:38.751Z,45.63
2018-03-26T03:14:11.314Z,43.87
2018-03-26T03:16:44.567Z,47.90
2018-03-26T03:19:17.179Z,42.30
2018-03-26T03:21:50.190Z,42.67
2018-03-26T03:24:23.660Z,44.70
2018-03-26T03:26:56.438Z,46.63
2018-03-26T03:29:29.553Z,43.43
2018-03-26T03:32:02.355Z,47.77
2018-03-26T03:34:35.326Z,34.17
2018-03-26T03:37:08.160Z,37.00
2018-03-26T03:39:42.090Z,37.40
2018-03-26T03:42:14.899Z,38.63
2018-03-26T03:44:47.696Z,40.50
2018-03-26T03:47:20.360Z,37.13
2018-03-26T03:49:53.360Z,38.73
2018-03-26T03:52:26.601Z,35.17
2018-03-26T03:55:00.036Z,53.77
2018-03-26T03:57:32.865Z,35.27
2018-03-26T04:00:05.524Z,39.33
2018-03-26T04:02:38.283Z,40.40
2018-03-26T04:05:11.713Z,38.57
2018-03-26T04:07:44.398Z,45.93
2018-03-26T04:10:17.353Z,41.23
2018-03-26T04:12:50.091Z,45.27
2018-03-26T04:15:23.110Z,42.87
2018-03-26T04:17:55.575Z,41.87
2018-03-26T04:20:28.899Z,36.87
2018-03-26T04:23:01.450Z,39.70
2018-03-26T04:25:33.873Z,40.10
2018-03-26T04:28:07.140Z,37.17
2018-03-26T04:30:39.880Z,37.57
2018-03-26T04:33:12.503Z,38.63
2018-03-26T04:35:45.141Z,39.43
2018-03-26T04:38:17.480Z,36.53
2018-03-26T04:40:50.747Z,38.77
2018-03-26T04:43:23.061Z,40.30
2018-03-26T04:45:55.599Z,38.07
2018-03-26T04:48:28.179Z,36.90
2018-03-26T04:51:01.359Z,40.07
2018-03-26T04:53:34.473Z,41.83
2018-03-26T04:56:07.736Z,39.77
2018-03-26T04:58:40.300Z,42.77
2018-03-26T05:01:13.823Z,42.93
2018-03-26T05:03:46.589Z,43.17
2018-03-26T05:06:19.149Z,53.17
2018-03-26T05:08:51.435Z,47.07
2018-03-26T05:11:24.017Z,46.90
2018-03-26T05:13:56.479Z,48.47
2018-03-26T05:16:29.633Z,43.87
2018-03-26T05:19:01.984Z,42.97
2018-03-26T05:21:35.549Z,44.10
2018-03-26T05:24:08.235Z,44.70
2018-03-26T05:26:40.924Z,45.87
2018-03-26T05:29:13.318Z,48.20
2018-03-26T05:31:45.664Z,46.20
2018-03-26T05:34:18.065Z,44.67
2018-03-26T05:36:50.696Z,45.33
2018-03-26T05:39:24.023Z,43.57
2018-03-26T05:41:57.622Z,46.60
2018-03-26T05:44:30.021Z,43.63
2018-03-26T05:47:02.523Z,45.70
2018-03-26T05:49:34.959Z,44.70
2018-03-26T05:52:07.518Z,45.63
2018-03-26T05:54:39.860Z,49.97
2018-03-26T05:57:12.248Z,53.87
2018-03-26T05:59:44.793Z,49.10
2018-03-26T06:02:17.365Z,51.37
2018-03-26T06:04:49.985Z,48.93
2018-03-26T06:07:22.353Z,54.90
2018-03-26T06:09:56.360Z,60.40
2018-03-26T06:12:28.783Z,51.80
2018-03-26T06:15:01.334Z,55.57
2018-03-26T06:17:34.589Z,56.37
2018-03-26T06:20:07.048Z,54.33
2018-03-26T06:22:39.418Z,58.23
2018-03-26T06:25:12.129Z,58.47
2018-03-26T06:27:45.003Z,59.83
2018-03-26T06:30:18.419Z,54.33
2018-03-26T06:32:51.583Z,56.67
2018-03-26T06:35:24.084Z,52.33
2018-03-26T06:37:57.419Z,53.20
2018-03-26T06:40:30.711Z,56.67
2018-03-26T06:43:10.934Z,51.00
2018-03-26T06:45:43.305Z,53.93
2018-03-26T06:48:16.492Z,58.40
2018-03-26T06:50:49.650Z,65.10
2018-03-26T06:53:21.989Z,57.53
2018-03-26T06:55:54.671Z,57.93
2018-03-26T06:58:27.455Z,60.50
2018-03-26T07:01:00.729Z,63.67
2018-03-26T07:03:33.082Z,65.47
2018-03-26T07:06:06.464Z,65.93
2018-03-26T07:08:39.173Z,65.07
2018-03-26T07:13:51.103Z,70.23
2018-03-26T07:16:23.749Z,71.20
2018-03-26T07:18:56.446Z,65.63
2018-03-26T07:21:28.904Z,65.70
2018-03-26T07:24:01.186Z,61.40
2018-03-26T07:26:34.683Z,65.07
2018-03-26T07:29:07.184Z,70.03
2018-03-26T07:31:40.395Z,64.50
2018-03-26T07:34:12.824Z,60.43
2018-03-26T07:36:45.464Z,62.87
2018-03-26T07:39:18.003Z,59.57
2018-03-26T07:41:50.507Z,62.87
2018-03-26T07:44:23.064Z,57.53
2018-03-26T07:46:55.380Z,67.47
2018-03-26T07:49:28.954Z,61.97
2018-03-26T07:52:02.100Z,62.63
2018-03-26T07:54:35.225Z,73.87
2018-03-26T07:57:08.346Z,60.97
2018-03-26T07:59:40.769Z,60.10
2018-03-26T08:02:13.920Z,57.17
2018-03-26T08:04:46.303Z,51.00
2018-03-26T08:07:18.831Z,56.43
2018-03-26T08:09:51.384Z,58.30
2018-03-26T08:12:25.104Z,53.33
2018-03-26T08:14:57.524Z,55.53
2018-03-26T08:17:30.776Z,48.70
2018-03-26T08:20:04.005Z,57.90
2018-03-26T08:22:36.401Z,48.87
2018-03-26T08:25:09.005Z,51.10
2018-03-26T08:27:41.551Z,52.50
2018-03-26T08:30:14.145Z,51.40
2018-03-26T08:32:46.695Z,46.03
2018-03-26T08:35:19.248Z,47.23
2018-03-26T08:37:51.724Z,40.13
2018-03-26T08:40:25.019Z,42.10
2018-03-26T08:42:58.310Z,40.90
2018-03-26T08:45:32.119Z,37.43
2018-03-26T08:48:04.865Z,41.33
2018-03-26T08:50:38.309Z,35.77
2018-03-26T08:53:11.045Z,40.23
2018-03-26T08:55:44.240Z,39.93
2018-03-26T08:58:16.715Z,40.40
2018-03-26T09:00:49.073Z,36.93
2018-03-26T09:03:21.689Z,31.90
2018-03-26T09:05:54.185Z,32.30
2018-03-26T09:08:26.484Z,33.60
2018-03-26T09:11:00.205Z,38.93
2018-03-26T09:13:33.456Z,34.23
2018-03-26T09:16:05.880Z,38.37
2018-03-26T09:18:38.307Z,31.63
2018-03-26T09:21:10.965Z,33.03
2018-03-26T09:23:43.315Z,33.33
2018-03-26T09:26:15.890Z,31.60
2018-03-26T09:28:48.415Z,33.57
2018-03-26T09:31:21.269Z,33.40
2018-03-26T09:33:53.856Z,27.77
2018-03-26T09:36:26.469Z,28.43
2018-03-26T09:38:58.956Z,29.90
2018-03-26T09:41:31.541Z,29.67
2018-03-26T09:44:04.810Z,26.80
2018-03-26T09:46:37.345Z,27.83
2018-03-26T09:49:10.033Z,22.30
2018-03-26T09:51:42.511Z,20.90
2018-03-26T09:54:15.013Z,21.20
2018-03-26T09:56:48.224Z,23.30
2018-03-26T09:59:20.704Z,22.00
2018-03-26T10:01:56.738Z,14.93
2018-03-26T10:04:30.045Z,20.47
2018-03-26T10:07:02.915Z,21.20
2018-03-26T10:09:35.489Z,19.27
2018-03-26T10:12:09.676Z,19.37
2018-03-26T10:14:42.445Z,13.20
2018-03-26T10:17:14.857Z,9.50
2018-03-26T10:19:48.167Z,15.47
2018-03-26T10:22:20.618Z,14.57
2018-03-26T10:24:53.942Z,5.50
2018-03-26T10:27:26.686Z,10.50
2018-03-26T10:29:59.281Z,12.07
2018-03-26T10:32:31.839Z,12.77
2018-03-26T10:35:04.606Z,10.57
2018-03-26T10:37:37.091Z,11.47
2018-03-26T10:40:09.749Z,13.27
2018-03-26T10:42:42.192Z,12.57
2018-03-26T10:45:14.914Z,11.90
2018-03-26T10:47:47.321Z,9.50
2018-03-26T10:50:20.509Z,11.73
2018-03-26T10:52:52.914Z,15.50
2018-03-26T10:55:25.439Z,14.07
2018-03-26T10:57:57.839Z,16.60
2018-03-26T11:00:31.056Z,14.40
2018-03-26T11:03:04.349Z,16.03
2018-03-26T11:05:37.279Z,16.00
2018-03-26T11:08:10.470Z,16.73
2018-03-26T11:10:43.694Z,13.70
2018-03-26T11:13:16.201Z,12.73
2018-03-26T11:15:48.930Z,12.40
2018-03-26T11:18:21.365Z,11.20
2018-03-26T11:20:54.681Z,15.97
2018-03-26T11:23:27.444Z,13.07
2018-03-26T11:25:59.944Z,13.30
2018-03-26T11:28:33.290Z,9.33
2018-03-26T11:31:06.937Z,11.63
2018-03-26T11:33:39.405Z,10.93
2018-03-26T11:36:12.893Z,12.10
2018-03-26T11:38:45.253Z,10.37
2018-03-26T11:41:17.872Z,11.73
2018-03-26T11:43:50.264Z,16.57
2018-03-26T11:46:23.415Z,17.37
2018-03-26T11:48:56.166Z,10.87
2018-03-26T11:51:28.695Z,12.03
2018-03-26T11:54:02.030Z,10.73
2018-03-26T11:56:34.531Z,10.00
2018-03-26T11:59:07.069Z,10.60
2018-03-26T12:01:39.630Z,10.37
2018-03-26T12:04:12.377Z,9.63
2018-03-26T12:06:44.649Z,9.60
2018-03-26T12:09:17.150Z,11.10
2018-03-26T12:11:49.680Z,9.43
2018-03-26T12:14:22.320Z,10.37
2018-03-26T12:16:54.989Z,7.10
2018-03-26T12:19:27.449Z,8.83
2018-03-26T12:22:00.194Z,8.83
2018-03-26T12:24:45.080Z,8.70
2018-03-26T12:27:17.567Z,9.13
2018-03-26T12:30:02.264Z,8.43
2018-03-26T12:32:34.990Z,6.70
2018-03-26T12:35:19.920Z,6.27
2018-03-26T12:37:52.462Z,7.23
2018-03-26T12:40:37.124Z,8.27
2018-03-26T12:43:09.736Z,7.83
2018-03-26T12:45:55.696Z,5.67
2018-03-26T12:48:29.040Z,4.20
2018-03-26T12:51:13.897Z,5.20
2018-03-26T12:53:46.605Z,4.00
2018-03-26T12:56:19.194Z,5.93
2018-03-26T12:58:51.585Z,3.87
2018-03-26T13:01:36.661Z,5.03
2018-03-26T13:04:09.200Z,3.60
2018-03-26T13:06:41.607Z,3.23
2018-03-26T13:09:14.024Z,3.03
2018-03-26T13:11:47.226Z,3.20
2018-03-26T13:14:20.661Z,3.20
2018-03-26T13:16:53.949Z,4.70
2018-03-26T13:19:26.586Z,4.00
2018-03-26T13:21:59.215Z,3.50
2018-03-26T13:24:31.889Z,2.90
2018-03-26T13:27:05.201Z,4.77
2018-03-26T13:29:37.701Z,4.57
2018-03-26T13:32:10.372Z,5.63
2018-03-26T13:34:42.851Z,3.10
2018-03-26T13:37:15.286Z,3.17
2018-03-26T13:39:47.825Z,2.77
2018-03-26T13:42:21.889Z,1.70
2018-03-26T13:44:54.595Z,2.13
2018-03-26T13:47:27.302Z,1.93
2018-03-26T13:49:59.730Z,3.53
2018-03-26T13:52:32.071Z,2.43
2018-03-26T13:55:05.682Z,3.20
2018-03-26T13:57:38.220Z,1.90
2018-03-26T14:00:10.731Z,1.90
2018-03-26T14:02:43.346Z,3.60
2018-03-26T14:05:15.777Z,2.07
2018-03-26T14:07:48.566Z,3.53
2018-03-26T14:10:33.429Z,2.67
2018-03-26T14:13:30.010Z,2.00
2018-03-26T14:16:14.547Z,3.47
2018-03-26T14:18:47.140Z,4.73
2018-03-26T14:21:19.688Z,2.23
2018-03-26T14:23:52.254Z,2.43
2018-03-26T14:26:24.934Z,3.20
2018-03-26T14:28:57.507Z,3.47
2018-03-26T14:31:31.409Z,2.70
2018-03-26T14:34:04.697Z,3.13
2018-03-26T14:36:37.394Z,2.83
2018-03-26T14:39:09.925Z,5.10
2018-03-26T14:41:43.857Z,2.10
2018-03-26T14:44:16.240Z,3.03
2018-03-26T14:46:48.935Z,2.63
2018-03-26T14:49:21.535Z,3.67
2018-03-26T14:51:53.936Z,3.83
2018-03-26T14:54:27.461Z,3.07
2018-03-26T14:56:59.932Z,3.10
2018-03-26T14:59:32.531Z,3.13
2018-03-26T15:02:06.052Z,4.27
2018-03-26T15:04:39.483Z,2.20
2018-03-26T15:07:12.647Z,2.70
2018-03-26T15:09:46.045Z,3.80
2018-03-26T15:12:18.573Z,2.43
2018-03-26T15:14:51.166Z,3.53
2018-03-26T15:17:23.755Z,2.43
2018-03-26T15:19:56.251Z,2.40
2018-03-26T15:22:28.922Z,3.13
2018-03-26T15:25:01.580Z,3.57
2018-03-26T15:27:34.896Z,4.13
2018-03-26T15:30:09.494Z,3.33
2018-03-26T15:32:41.978Z,3.00
2018-03-26T15:35:15.020Z,3.43
2018-03-26T15:37:48.070Z,3.57
2018-03-26T15:40:20.707Z,3.77
2018-03-26T15:42:53.231Z,5.20
2018-03-26T15:45:26.177Z,4.40
2018-03-26T15:47:58.722Z,5.40
2018-03-26T15:50:31.464Z,4.00
2018-03-26T15:53:03.951Z,4.40
2018-03-26T15:55:37.621Z,5.30
2018-03-26T15:58:11.747Z,3.47
2018-03-26T16:00:45.141Z,2.97
2018-03-26T16:03:23.786Z,4.40
2018-03-26T16:05:56.345Z,4.23
2018-03-26T16:08:29.096Z,3.70
2018-03-26T16:11:01.468Z,6.87
2018-03-26T16:16:13.294Z,4.50
2018-03-26T16:18:45.745Z,4.53
2018-03-26T16:21:18.605Z,3.70
2018-03-26T16:23:51.242Z,5.97
2018-03-26T16:26:24.032Z,6.72
2018-03-26T16:28:56.941Z,4.62
2018-03-26T16:31:29.640Z,9.52
2018-03-26T16:34:02.482Z,5.30
2018-03-26T16:36:35.850Z,5.62
2018-03-26T16:39:08.490Z,5.00
2018-03-26T16:41:47.459Z,6.93
2018-03-26T16:44:20.041Z,5.18
2018-03-26T16:46:53.248Z,5.30
2018-03-26T16:49:25.800Z,5.43
2018-03-26T16:51:58.269Z,6.20
2018-03-26T16:54:31.466Z,5.60
2018-03-26T16:57:04.655Z,6.83
2018-03-26T16:59:37.275Z,8.63
2018-03-26T17:02:09.745Z,10.57
2018-03-26T17:04:42.825Z,9.30
2018-03-26T17:07:16.307Z,10.57
2018-03-26T17:09:48.912Z,10.60
2018-03-26T17:12:21.469Z,11.00
2018-03-26T17:14:47.884Z,12.83
2018-03-26T17:17:14.232Z,9.77
2018-03-26T17:19:40.770Z,12.13
2018-03-26T17:22:07.279Z,17.87
2018-03-26T17:24:41.077Z,17.17
2018-03-26T17:27:07.477Z,16.20
2018-03-26T17:29:34.815Z,10.97
2018-03-26T17:32:02.061Z,11.73
2018-03-26T17:34:29.375Z,12.23
2018-03-26T17:36:55.738Z,10.70
2018-03-26T17:39:23.638Z,12.90
2018-03-26T17:41:50.786Z,12.13
2018-03-26T17:44:17.881Z,13.83
2018-03-26T17:46:44.209Z,11.30
2018-03-26T17:49:10.634Z,13.37
2018-03-26T17:51:36.986Z,13.87
2018-03-26T17:54:03.506Z,12.00
2018-03-26T17:56:30.006Z,13.47
2018-03-26T17:58:57.440Z,11.73
2018-03-26T18:01:23.839Z,12.20
2018-03-26T18:03:50.268Z,14.30
2018-03-26T18:06:17.472Z,10.50
2018-03-26T18:08:44.813Z,13.67
2018-03-26T18:11:11.345Z,12.07
2018-03-26T18:13:38.916Z,13.50
2018-03-26T18:16:06.037Z,12.63
2018-03-26T18:18:32.548Z,13.67
2018-03-26T18:20:59.008Z,16.83
2018-03-26T18:23:26.682Z,13.43
2018-03-26T18:25:53.860Z,14.80
2018-03-26T18:28:21.287Z,16.60
2018-03-26T18:30:47.902Z,14.80
2018-03-26T18:33:14.397Z,13.73
2018-03-26T18:35:41.087Z,14.10
2018-03-26T18:38:07.631Z,19.40
2018-03-26T18:40:34.500Z,16.70
2018-03-26T18:43:01.708Z,14.50
2018-03-26T18:45:28.353Z,14.87
2018-03-26T18:47:56.293Z,17.37
2018-03-26T18:50:22.891Z,14.27
2018-03-26T18:52:50.091Z,15.10
2018-03-26T18:55:16.516Z,13.87
2018-03-26T18:57:43.398Z,17.87
2018-03-26T19:00:09.869Z,13.93
2018-03-26T19:02:36.325Z,12.73
2018-03-26T19:05:02.877Z,15.97
2018-03-26T19:07:29.407Z,14.07
2018-03-26T19:09:56.551Z,16.37
2018-03-26T19:12:23.375Z,17.33
2018-03-26T19:14:50.187Z,15.83
2018-03-26T19:17:17.326Z,12.67
2018-03-26T19:19:43.879Z,18.07
2018-03-26T19:22:10.373Z,14.13
2018-03-26T19:24:36.878Z,13.77
2018-03-26T19:27:03.451Z,14.10
2018-03-26T19:29:29.958Z,14.97
2018-03-26T19:31:57.082Z,13.20
2018-03-26T19:34:23.509Z,13.73
2018-03-26T19:36:50.180Z,19.90
2018-03-26T19:39:16.593Z,16.13
2018-03-26T19:41:43.014Z,21.30
2018-03-26T19:44:09.678Z,25.53
2018-03-26T19:46:36.191Z,25.97
2018-03-26T19:49:03.526Z,17.20
2018-03-26T19:51:30.739Z,24.60
2018-03-26T19:53:57.128Z,22.27
2018-03-26T19:56:23.533Z,22.13
2018-03-26T19:58:49.944Z,18.77
2018-03-26T20:01:16.398Z,22.17
2018-03-26T20:03:42.932Z,19.80
2018-03-26T20:06:09.577Z,17.80
2018-03-26T20:08:36.756Z,18.73
2018-03-26T20:11:03.287Z,18.60
2018-03-26T20:13:30.422Z,20.23
2018-03-26T20:15:57.512Z,17.47
2018-03-26T20:18:23.875Z,15.37
2018-03-26T20:20:57.177Z,16.60
2018-03-26T20:23:30.640Z,21.80
2018-03-26T20:26:04.052Z,17.10
2018-03-26T20:28:36.989Z,17.73
2018-03-26T20:31:09.703Z,20.70
2018-03-26T20:33:42.489Z,23.63
2018-03-26T20:36:15.025Z,23.17
2018-03-26T20:38:47.736Z,22.27
2018-03-26T20:41:20.523Z,23.80
2018-03-26T20:43:53.111Z,23.10
2018-03-26T20:46:25.916Z,20.50
2018-03-26T20:48:58.775Z,18.83
2018-03-26T20:51:31.303Z,20.90
2018-03-26T20:54:04.906Z,24.37
2018-03-26T20:56:38.197Z,17.97
2018-03-26T20:59:10.963Z,22.40
2018-03-26T21:01:44.559Z,25.70
2018-03-26T21:04:17.939Z,23.57
2018-03-26T21:06:50.756Z,21.97
2018-03-26T21:09:24.139Z,23.87
2018-03-26T21:11:56.562Z,25.00
2018-03-26T21:14:29.135Z,23.60
2018-03-26T21:17:01.787Z,23.70
2018-03-26T21:19:34.949Z,23.73
2018-03-26T21:22:07.613Z,25.57
2018-03-26T21:24:40.329Z,20.33
2018-03-26T21:27:12.732Z,21.37
2018-03-26T21:29:45.187Z,23.77
2018-03-26T21:32:17.967Z,21.87
2018-03-26T21:34:50.449Z,18.37
2018-03-26T21:37:23.795Z,22.57
2018-03-26T21:39:56.363Z,25.90
2018-03-26T21:42:29.220Z,23.10
2018-03-26T21:45:02.765Z,23.10
2018-03-26T21:47:35.196Z,22.13
2018-03-26T21:50:07.959Z,24.50
2018-03-26T21:52:40.473Z,25.40
2018-03-26T21:55:13.141Z,22.93
2018-03-26T21:57:45.960Z,25.73
2018-03-26T22:00:20.294Z,25.80
2018-03-26T22:02:53.740Z,22.17
2018-03-26T22:05:26.106Z,24.03
2018-03-26T22:07:58.515Z,25.77
2018-03-26T22:10:31.275Z,23.03
2018-03-26T22:13:04.476Z,20.33
2018-03-26T22:15:37.074Z,26.27
2018-03-26T22:18:09.802Z,25.07
2018-03-26T22:20:42.283Z,26.70
2018-03-26T22:23:14.847Z,26.33
2018-03-26T22:25:48.136Z,23.30
2018-03-26T22:28:20.539Z,27.00
2018-03-26T22:30:53.119Z,27.73
2018-03-26T22:33:25.518Z,20.33
2018-03-26T22:35:58.677Z,25.93
2018-03-26T22:38:30.961Z,24.47
2018-03-26T22:41:03.432Z,27.47
2018-03-26T22:43:35.950Z,24.17
2018-03-26T22:46:08.435Z,20.87
2018-03-26T22:48:40.827Z,26.37
2018-03-26T22:51:14.097Z,25.40
2018-03-26T22:53:47.452Z,22.27
2018-03-26T22:56:20.686Z,22.50
2018-03-26T22:58:53.193Z,22.20
2018-03-26T23:01:25.822Z,22.93
2018-03-26T23:03:59.189Z,27.07
2018-03-26T23:06:33.143Z,25.00
2018-03-26T23:09:06.093Z,26.40
2018-03-26T23:11:38.739Z,26.47
2018-03-26T23:14:11.433Z,23.77
2018-03-26T23:16:45.422Z,23.30
2018-03-26T23:19:18.810Z,26.93
2018-03-26T23:21:52.066Z,26.93
2018-03-26T23:24:25.207Z,24.30
2018-03-26T23:26:57.811Z,27.77
2018-03-26T23:29:30.523Z,25.53
2018-03-26T23:32:03.232Z,25.13
2018-03-26T23:34:35.689Z,22.17
2018-03-26T23:37:08.830Z,22.00
2018-03-26T23:39:42.018Z,25.13
2018-03-26T23:42:14.581Z,28.67
2018-03-26T23:44:47.133Z,26.13
2018-03-26T23:47:19.553Z,25.53
2018-03-26T23:49:52.729Z,22.70
2018-03-26T23:52:25.921Z,29.10
2018-03-26T23:54:59.193Z,22.90
2018-03-26T23:57:31.837Z,23.67
